Airfield :
LOGIN :

Register | Disclaimer

   EN    FR    IT 

 










Legend :    VFR   Marginal VFR   IFR   Intensive IFR   Very Intensive IFR
Visi :
Ceiling :
>= 8 km
>= 3000ft
5 to 8 km
1000 to 3000 ft
1500m to 5 km
500 to 1000 ft
800 to 1500m
200 to 500 ft
< 800m
< 200 ft
Symbols :   Thunderstorms  Fog  Heavy snow  Heavy precipitations  Wind > 20 kt
SIGMETs :     Misc.  Thunderstorms  Icing  Turbulence  Mountain Waves  Volcanic Ashes







- Airport Elevation : 112 ft
- IATA code : KIR


EIKY - Kerry Farranfore

CURRENT METAR :
  • 281630Z 29007G18KT 250V330 9999 VCSH FEW019 SCT022CB 16/12 Q1002

EXPIRED METARs :
  • 281600Z 28009KT 250V320 9999 SCT026 16/12 Q1002
  • 281530Z 26015KT 9999 SCT022 BKN037 16/12 Q1002
  • 281500Z 27012KT 240V320 9999 SCT022 BKN037 BKN046 16/11 Q1002
  • 281430Z 26012KT 240V300 9999 SCT024 17/12 Q1002
  • 281400Z 26013KT 9999 SCT031 17/11 Q1002

TAF TAF EIKY
Valid from the 28 at 09:00 until the 28 at 18:00 UTC


280800Z 2809/2818 24010KT 9999 FEW015 BKN025
PROB40
TEMPO 2809/2813 -RA BKN012
No reported NOTAMs for that airfield.



MET'MAP, your aeronautical weather chart ! - Copyright ORBIFLY December 2007 - Disclaimer

ORBIFLY MET'MAP TEAM :

Programming & Development : Alexandra Zaïnal
Concept & Development : Baudouin d'Aumeries
Co-Development & Prog : Marc-Olivier Méhu
Technical & hardware support : Manuel Goepfert

Contact : metmap@orbifly.com




SOURCES & CREDITS :

   NOAA